sensor_id;sensor_type;location;lat;lon;timestamp;pressure;altitude;pressure_sealevel;temperature;humidity
21431;BME280;10876;49.038;10.608;2023-02-18T00:01:15;99069.31;;;10.42;100.00
21431;BME280;10876;49.038;10.608;2023-02-18T00:03:43;99067.47;;;10.37;100.00
21431;BME280;10876;49.038;10.608;2023-02-18T00:06:12;99071.09;;;10.32;100.00
21431;BME280;10876;49.038;10.608;2023-02-18T00:08:40;99070.00;;;10.33;100.00
21431;BME280;10876;49.038;10.608;2023-02-18T00:11:07;99066.78;;;10.26;100.00
21431;BME280;10876;49.038;10.608;2023-02-18T00:13:36;99065.19;;;10.25;100.00
21431;BME280;10876;49.038;10.608;2023-02-18T00:16:05;99064.06;;;10.26;100.00
21431;BME280;10876;49.038;10.608;2023-02-18T00:18:33;99063.72;;;10.14;100.00
21431;BME280;10876;49.038;10.608;2023-02-18T00:21:02;99071.94;;;10.14;100.00
21431;BME280;10876;49.038;10.608;2023-02-18T00:23:29;99081.84;;;10.10;100.00
21431;BME280;10876;49.038;10.608;2023-02-18T00:26:00;99010.19;;;10.08;100.00
21431;BME280;10876;49.038;10.608;2023-02-18T00:28:28;99010.78;;;10.05;100.00
21431;BME280;10876;49.038;10.608;2023-02-18T00:30:56;99006.94;;;10.06;100.00
21431;BME280;10876;49.038;10.608;2023-02-18T00:33:23;99000.44;;;10.02;100.00
21431;BME280;10876;49.038;10.608;2023-02-18T00:35:50;98993.69;;;10.13;100.00
21431;BME280;10876;49.038;10.608;2023-02-18T00:38:17;99004.28;;;10.01;100.00
21431;BME280;10876;49.038;10.608;2023-02-18T00:40:44;99010.34;;;9.98;100.00
21431;BME280;10876;49.038;10.608;2023-02-18T00:43:13;99022.94;;;9.99;100.00
21431;BME280;10876;49.038;10.608;2023-02-18T00:45:40;99031.97;;;9.99;100.00
21431;BME280;10876;49.038;10.608;2023-02-18T00:48:08;99048.66;;;9.98;100.00
21431;BME280;10876;49.038;10.608;2023-02-18T00:50:35;99062.06;;;9.99;100.00
21431;BME280;10876;49.038;10.608;2023-02-18T00:53:02;99078.25;;;9.96;100.00
21431;BME280;10876;49.038;10.608;2023-02-18T00:55:29;99089.19;;;9.96;100.00
21431;BME280;10876;49.038;10.608;2023-02-18T00:57:56;99112.19;;;9.95;100.00
21431;BME280;10876;49.038;10.608;2023-02-18T01:00:23;99113.75;;;10.01;100.00
21431;BME280;10876;49.038;10.608;2023-02-18T01:02:51;99129.06;;;10.02;100.00
21431;BME280;10876;49.038;10.608;2023-02-18T01:05:20;99137.88;;;9.99;100.00
21431;BME280;10876;49.038;10.608;2023-02-18T01:07:47;99131.81;;;10.02;100.00
21431;BME280;10876;49.038;10.608;2023-02-18T01:10:14;99154.28;;;9.99;100.00
21431;BME280;10876;49.038;10.608;2023-02-18T01:12:42;99154.28;;;9.99;100.00
21431;BME280;10876;49.038;10.608;2023-02-18T01:15:11;99161.38;;;10.00;100.00
21431;BME280;10876;49.038;10.608;2023-02-18T01:17:39;99175.59;;;10.02;100.00
21431;BME280;10876;49.038;10.608;2023-02-18T01:20:08;99170.13;;;10.02;100.00
21431;BME280;10876;49.038;10.608;2023-02-18T01:22:37;99175.06;;;10.00;100.00
21431;BME280;10876;49.038;10.608;2023-02-18T01:25:05;99194.22;;;10.00;100.00
21431;BME280;10876;49.038;10.608;2023-02-18T01:27:32;99186.97;;;10.09;100.00
21431;BME280;10876;49.038;10.608;2023-02-18T01:29:59;99180.00;;;9.98;100.00
21431;BME280;10876;49.038;10.608;2023-02-18T01:32:26;99191.28;;;9.96;100.00
21431;BME280;10876;49.038;10.608;2023-02-18T01:34:53;99181.66;;;9.99;100.00
21431;BME280;10876;49.038;10.608;2023-02-18T01:37:20;99176.47;;;9.97;100.00
21431;BME280;10876;49.038;10.608;2023-02-18T01:39:49;99180.00;;;9.98;100.00
21431;BME280;10876;49.038;10.608;2023-02-18T01:42:18;99190.75;;;9.94;100.00
21431;BME280;10876;49.038;10.608;2023-02-18T01:44:46;99170.31;;;9.86;100.00
21431;BME280;10876;49.038;10.608;2023-02-18T01:47:15;99170.84;;;9.88;100.00
21431;BME280;10876;49.038;10.608;2023-02-18T01:49:43;99167.00;;;9.89;100.00
21431;BME280;10876;49.038;10.608;2023-02-18T01:52:14;99141.28;;;9.90;100.00
21431;BME280;10876;49.038;10.608;2023-02-18T01:54:44;99126.47;;;9.91;100.00
21431;BME280;10876;49.038;10.608;2023-02-18T01:57:16;99113.31;;;9.93;100.00
21431;BME280;10876;49.038;10.608;2023-02-18T01:59:47;99108.44;;;9.90;100.00
21431;BME280;10876;49.038;10.608;2023-02-18T02:02:17;99095.63;;;9.86;100.00
21431;BME280;10876;49.038;10.608;2023-02-18T02:04:45;99092.63;;;9.87;100.00
21431;BME280;10876;49.038;10.608;2023-02-18T02:07:13;99078.63;;;9.89;100.00
21431;BME280;10876;49.038;10.608;2023-02-18T02:09:46;99069.00;;;9.91;100.00
21431;BME280;10876;49.038;10.608;2023-02-18T02:12:25;99001.22;;;9.88;100.00
21431;BME280;10876;49.038;10.608;2023-02-18T02:15:25;98974.25;;;9.96;100.00
21431;BME280;10876;49.038;10.608;2023-02-18T02:24:56;98931.09;;;9.92;100.00
21431;BME280;10876;49.038;10.608;2023-02-18T02:27:32;98925.63;;;9.92;100.00
21431;BME280;10876;49.038;10.608;2023-02-18T02:36:25;98895.03;;;9.90;100.00
21431;BME280;10876;49.038;10.608;2023-02-18T02:39:01;98973.25;;;9.91;100.00
21431;BME280;10876;49.038;10.608;2023-02-18T02:41:39;98980.94;;;9.89;100.00
21431;BME280;10876;49.038;10.608;2023-02-18T02:44:18;98965.56;;;9.93;100.00
21431;BME280;10876;49.038;10.608;2023-02-18T02:46:47;98956.22;;;9.95;100.00
21431;BME280;10876;49.038;10.608;2023-02-18T02:49:25;98952.69;;;9.94;100.00
21431;BME280;10876;49.038;10.608;2023-02-18T02:52:00;98949.16;;;9.93;100.00
21431;BME280;10876;49.038;10.608;2023-02-18T02:54:29;98957.63;;;9.92;100.00
21431;BME280;10876;49.038;10.608;2023-02-18T02:57:08;98943.06;;;9.97;100.00
21431;BME280;10876;49.038;10.608;2023-02-18T03:00:01;98920.97;;;9.93;100.00
21431;BME280;10876;49.038;10.608;2023-02-18T03:02:36;98919.53;;;9.96;100.00
21431;BME280;10876;49.038;10.608;2023-02-18T03:05:20;98910.94;;;9.88;100.00
21431;BME280;10876;49.038;10.608;2023-02-18T03:08:18;98927.88;;;9.90;100.00
21431;BME280;10876;49.038;10.608;2023-02-18T03:10:55;98914.19;;;9.90;100.00
21431;BME280;10876;49.038;10.608;2023-02-18T03:13:43;98915.78;;;9.91;100.00
21431;BME280;10876;49.038;10.608;2023-02-18T03:16:25;98916.22;;;9.99;100.00
21431;BME280;10876;49.038;10.608;2023-02-18T03:18:59;98920.16;;;9.92;100.00
21431;BME280;10876;49.038;10.608;2023-02-18T03:21:30;98913.56;;;9.93;100.00
21431;BME280;10876;49.038;10.608;2023-02-18T03:24:01;98901.50;;;9.95;100.00
21431;BME280;10876;49.038;10.608;2023-02-18T03:26:32;98894.41;;;9.93;100.00
21431;BME280;10876;49.038;10.608;2023-02-18T03:29:20;98893.91;;;9.91;100.00
21431;BME280;10876;49.038;10.608;2023-02-18T03:31:53;98888.34;;;9.97;100.00
21431;BME280;10876;49.038;10.608;2023-02-18T03:34:25;98894.81;;;10.01;100.00
21431;BME280;10876;49.038;10.608;2023-02-18T03:36:55;98890.47;;;10.00;100.00
21431;BME280;10876;49.038;10.608;2023-02-18T03:39:27;98892.19;;;10.09;100.00
21431;BME280;10876;49.038;10.608;2023-02-18T03:41:55;98885.53;;;10.02;100.00
21431;BME280;10876;49.038;10.608;2023-02-18T03:44:23;98887.41;;;10.01;100.00
21431;BME280;10876;49.038;10.608;2023-02-18T03:46:51;98902.13;;;10.05;100.00
21431;BME280;10876;49.038;10.608;2023-02-18T03:49:18;98883.69;;;10.11;100.00
21431;BME280;10876;49.038;10.608;2023-02-18T03:51:45;98872.75;;;10.11;100.00
21431;BME280;10876;49.038;10.608;2023-02-18T03:54:12;98877.91;;;10.12;100.00
21431;BME280;10876;49.038;10.608;2023-02-18T03:56:41;98885.91;;;10.09;100.00
21431;BME280;10876;49.038;10.608;2023-02-18T03:59:08;98887.53;;;10.10;100.00
21431;BME280;10876;49.038;10.608;2023-02-18T04:01:35;98879.81;;;10.12;100.00
21431;BME280;10876;49.038;10.608;2023-02-18T04:04:03;98886.53;;;10.06;100.00
21431;BME280;10876;49.038;10.608;2023-02-18T04:06:30;98873.97;;;10.05;100.00
21431;BME280;10876;49.038;10.608;2023-02-18T04:08:57;98864.63;;;10.06;100.00
21431;BME280;10876;49.038;10.608;2023-02-18T04:11:23;98870.53;;;10.13;100.00
21431;BME280;10876;49.038;10.608;2023-02-18T04:13:52;98823.69;;;10.14;100.00
21431;BME280;10876;49.038;10.608;2023-02-18T04:16:19;98820.22;;;10.09;100.00
21431;BME280;10876;49.038;10.608;2023-02-18T04:18:51;98822.69;;;10.10;100.00
21431;BME280;10876;49.038;10.608;2023-02-18T04:21:18;98814.75;;;10.09;100.00
21431;BME280;10876;49.038;10.608;2023-02-18T04:23:45;98804.31;;;10.11;100.00
21431;BME280;10876;49.038;10.608;2023-02-18T04:26:12;98806.44;;;10.14;100.00
21431;BME280;10876;49.038;10.608;2023-02-18T04:28:40;98800.56;;;10.07;100.00
21431;BME280;10876;49.038;10.608;2023-02-18T04:31:08;98795.50;;;10.14;100.00
21431;BME280;10876;49.038;10.608;2023-02-18T04:33:36;98795.09;;;10.07;100.00
21431;BME280;10876;49.038;10.608;2023-02-18T04:36:06;98790.84;;;10.14;100.00
21431;BME280;10876;49.038;10.608;2023-02-18T04:38:33;98788.41;;;10.13;100.00
21431;BME280;10876;49.038;10.608;2023-02-18T04:41:00;98784.56;;;10.14;100.00
21431;BME280;10876;49.038;10.608;2023-02-18T04:43:27;98783.53;;;10.10;100.00
21431;BME280;10876;49.038;10.608;2023-02-18T04:45:54;98776.03;;;10.15;100.00
21431;BME280;10876;49.038;10.608;2023-02-18T04:48:22;98787.19;;;10.19;100.00
21431;BME280;10876;49.038;10.608;2023-02-18T04:50:50;98770.94;;;10.23;100.00
21431;BME280;10876;49.038;10.608;2023-02-18T04:53:17;98767.91;;;10.24;100.00
21431;BME280;10876;49.038;10.608;2023-02-18T04:55:48;98771.75;;;10.23;100.00
21431;BME280;10876;49.038;10.608;2023-02-18T04:58:15;98771.16;;;10.26;100.00
21431;BME280;10876;49.038;10.608;2023-02-18T05:00:42;98781.09;;;10.22;100.00
21431;BME280;10876;49.038;10.608;2023-02-18T05:03:09;98774.59;;;10.18;100.00
21431;BME280;10876;49.038;10.608;2023-02-18T05:05:37;98779.47;;;10.21;100.00
21431;BME280;10876;49.038;10.608;2023-02-18T05:08:06;98777.75;;;10.25;100.00
21431;BME280;10876;49.038;10.608;2023-02-18T05:10:33;98781.50;;;10.29;100.00
21431;BME280;10876;49.038;10.608;2023-02-18T05:13:00;98774.78;;;10.35;100.00
21431;BME280;10876;49.038;10.608;2023-02-18T05:15:27;98786.97;;;10.29;100.00
21431;BME280;10876;49.038;10.608;2023-02-18T05:17:55;98801.56;;;10.38;100.00
21431;BME280;10876;49.038;10.608;2023-02-18T05:20:22;98808.50;;;10.36;100.00
21431;BME280;10876;49.038;10.608;2023-02-18T05:22:50;98809.91;;;10.33;100.00
21431;BME280;10876;49.038;10.608;2023-02-18T05:25:17;98810.53;;;10.30;100.00
21431;BME280;10876;49.038;10.608;2023-02-18T05:27:44;98823.47;;;10.38;100.00
21431;BME280;10876;49.038;10.608;2023-02-18T05:30:12;98813.97;;;10.36;100.00
21431;BME280;10876;49.038;10.608;2023-02-18T05:32:39;98809.41;;;10.31;100.00
21431;BME280;10876;49.038;10.608;2023-02-18T05:35:07;98806.03;;;10.34;100.00
21431;BME280;10876;49.038;10.608;2023-02-18T05:37:34;98813.53;;;10.43;100.00
21431;BME280;10876;49.038;10.608;2023-02-18T05:40:02;98809.28;;;10.36;100.00
21431;BME280;10876;49.038;10.608;2023-02-18T05:42:30;98820.84;;;10.33;100.00
21431;BME280;10876;49.038;10.608;2023-02-18T05:44:58;98821.22;;;10.41;100.00
21431;BME280;10876;49.038;10.608;2023-02-18T05:47:25;98810.28;;;10.41;100.00
21431;BME280;10876;49.038;10.608;2023-02-18T05:49:51;98780.88;;;10.32;100.00
21431;BME280;10876;49.038;10.608;2023-02-18T05:52:20;98778.03;;;10.37;100.00
21431;BME280;10876;49.038;10.608;2023-02-18T05:54:47;98788.38;;;10.41;100.00
21431;BME280;10876;49.038;10.608;2023-02-18T05:57:16;98794.38;;;10.43;100.00
21431;BME280;10876;49.038;10.608;2023-02-18T05:59:42;98794.38;;;10.43;100.00
21431;BME280;10876;49.038;10.608;2023-02-18T06:02:10;98794.97;;;10.40;100.00
21431;BME280;10876;49.038;10.608;2023-02-18T06:04:36;98791.22;;;10.35;100.00
21431;BME280;10876;49.038;10.608;2023-02-18T06:07:05;98777.44;;;10.41;100.00
21431;BME280;10876;49.038;10.608;2023-02-18T06:09:32;98787.38;;;10.36;100.00
21431;BME280;10876;49.038;10.608;2023-02-18T06:11:59;98791.84;;;10.32;100.00
21431;BME280;10876;49.038;10.608;2023-02-18T06:14:27;98798.97;;;10.33;100.00
21431;BME280;10876;49.038;10.608;2023-02-18T06:16:54;98805.03;;;10.30;100.00
21431;BME280;10876;49.038;10.608;2023-02-18T06:19:22;98807.66;;;10.35;100.00
21431;BME280;10876;49.038;10.608;2023-02-18T06:21:49;98802.78;;;10.32;100.00
21431;BME280;10876;49.038;10.608;2023-02-18T06:24:16;98807.34;;;10.37;100.00
21431;BME280;10876;49.038;10.608;2023-02-18T06:26:43;98832.81;;;10.37;100.00
21431;BME280;10876;49.038;10.608;2023-02-18T06:29:09;98835.44;;;10.43;100.00
21431;BME280;10876;49.038;10.608;2023-02-18T06:31:38;98824.59;;;10.37;100.00
21431;BME280;10876;49.038;10.608;2023-02-18T06:34:05;98819.00;;;10.43;100.00
21431;BME280;10876;49.038;10.608;2023-02-18T06:36:33;98817.41;;;10.42;100.00
21431;BME280;10876;49.038;10.608;2023-02-18T06:39:02;98822.88;;;10.42;100.00
21431;BME280;10876;49.038;10.608;2023-02-18T06:41:29;98822.47;;;10.34;100.00
21431;BME280;10876;49.038;10.608;2023-02-18T06:43:56;98818.22;;;10.42;100.00
21431;BME280;10876;49.038;10.608;2023-02-18T06:46:23;98824.50;;;10.43;100.00
21431;BME280;10876;49.038;10.608;2023-02-18T06:48:52;98825.72;;;10.36;100.00
21431;BME280;10876;49.038;10.608;2023-02-18T06:51:19;98824.69;;;10.46;100.00
21431;BME280;10876;49.038;10.608;2023-02-18T06:53:46;98823.03;;;10.59;100.00
21431;BME280;10876;49.038;10.608;2023-02-18T06:56:13;98827.19;;;10.56;100.00
21431;BME280;10876;49.038;10.608;2023-02-18T06:58:40;98837.47;;;10.51;100.00
21431;BME280;10876;49.038;10.608;2023-02-18T07:01:07;98844.66;;;10.47;100.00
21431;BME280;10876;49.038;10.608;2023-02-18T07:03:34;98846.16;;;10.53;100.00
21431;BME280;10876;49.038;10.608;2023-02-18T07:06:03;98839.06;;;10.52;100.00
21431;BME280;10876;49.038;10.608;2023-02-18T07:08:30;98855.50;;;10.52;100.00
21431;BME280;10876;49.038;10.608;2023-02-18T07:11:00;98868.69;;;10.50;100.00
21431;BME280;10876;49.038;10.608;2023-02-18T07:13:28;98866.88;;;10.59;100.00
21431;BME280;10876;49.038;10.608;2023-02-18T07:19:05;98894.63;;;10.66;100.00
21431;BME280;10876;49.038;10.608;2023-02-18T07:21:34;98892.00;;;10.61;100.00
21431;BME280;10876;49.038;10.608;2023-02-18T07:24:01;98896.25;;;10.67;100.00
21431;BME280;10876;49.038;10.608;2023-02-18T07:26:28;98899.50;;;10.69;100.00
21431;BME280;10876;49.038;10.608;2023-02-18T07:28:55;98913.28;;;10.64;100.00
21431;BME280;10876;49.038;10.608;2023-02-18T07:31:24;98915.53;;;10.76;100.00
21431;BME280;10876;49.038;10.608;2023-02-18T07:34:16;98917.56;;;10.70;100.00
21431;BME280;10876;49.038;10.608;2023-02-18T07:36:45;98931.75;;;10.72;100.00
21431;BME280;10876;49.038;10.608;2023-02-18T07:39:12;98948.69;;;10.74;100.00
21431;BME280;10876;49.038;10.608;2023-02-18T07:41:39;98943.31;;;10.69;100.00
21431;BME280;10876;49.038;10.608;2023-02-18T07:44:06;98958.44;;;10.80;100.00
21431;BME280;10876;49.038;10.608;2023-02-18T07:46:33;98952.84;;;10.86;100.00
21431;BME280;10876;49.038;10.608;2023-02-18T07:49:00;98964.09;;;10.84;100.00
21431;BME280;10876;49.038;10.608;2023-02-18T07:51:27;98972.56;;;10.88;100.00
21431;BME280;10876;49.038;10.608;2023-02-18T07:53:55;98963.38;;;10.92;100.00
21431;BME280;10876;49.038;10.608;2023-02-18T07:56:25;98973.72;;;10.95;100.00
21431;BME280;10876;49.038;10.608;2023-02-18T07:58:52;98982.97;;;10.99;100.00
21431;BME280;10876;49.038;10.608;2023-02-18T08:04:29;99045.00;;;10.95;100.00
21431;BME280;10876;49.038;10.608;2023-02-18T08:10:04;99060.13;;;11.07;100.00
21431;BME280;10876;49.038;10.608;2023-02-18T08:16:06;99073.44;;;11.13;100.00
21431;BME280;10876;49.038;10.608;2023-02-18T08:18:33;99082.03;;;11.20;100.00
21431;BME280;10876;49.038;10.608;2023-02-18T08:21:00;99067.72;;;11.23;100.00
21431;BME280;10876;49.038;10.608;2023-02-18T08:23:26;99077.97;;;11.32;100.00
21431;BME280;10876;49.038;10.608;2023-02-18T08:25:55;99092.69;;;11.36;100.00
21431;BME280;10876;49.038;10.608;2023-02-18T08:28:23;99094.50;;;11.54;100.00
21431;BME280;10876;49.038;10.608;2023-02-18T08:31:15;99101.50;;;11.60;100.00
21431;BME280;10876;49.038;10.608;2023-02-18T08:33:42;99104.84;;;11.57;100.00
21431;BME280;10876;49.038;10.608;2023-02-18T08:36:09;99139.91;;;11.60;100.00
21431;BME280;10876;49.038;10.608;2023-02-18T08:38:37;99135.94;;;11.66;100.00
21431;BME280;10876;49.038;10.608;2023-02-18T08:41:08;99140.91;;;11.64;100.00
21431;BME280;10876;49.038;10.608;2023-02-18T08:43:35;99161.66;;;11.70;100.00
21431;BME280;10876;49.038;10.608;2023-02-18T08:46:02;99177.50;;;11.73;100.00
21431;BME280;10876;49.038;10.608;2023-02-18T08:48:30;99177.81;;;11.86;100.00
21431;BME280;10876;49.038;10.608;2023-02-18T08:50:57;99218.63;;;12.01;100.00
21431;BME280;10876;49.038;10.608;2023-02-18T08:53:24;99219.66;;;12.05;100.00
21431;BME280;10876;49.038;10.608;2023-02-18T08:55:51;99246.53;;;11.94;100.00
21431;BME280;10876;49.038;10.608;2023-02-18T08:58:20;99254.94;;;11.98;100.00
21431;BME280;10876;49.038;10.608;2023-02-18T09:00:47;99250.66;;;12.20;100.00
21431;BME280;10876;49.038;10.608;2023-02-18T09:03:14;99269.88;;;12.20;100.00
21431;BME280;10876;49.038;10.608;2023-02-18T09:05:41;99289.13;;;12.06;100.00
21431;BME280;10876;49.038;10.608;2023-02-18T09:08:08;99294.50;;;11.97;100.00
21431;BME280;10876;49.038;10.608;2023-02-18T09:10:36;99307.13;;;11.98;100.00
21431;BME280;10876;49.038;10.608;2023-02-18T09:13:04;99324.63;;;12.02;100.00
21431;BME280;10876;49.038;10.608;2023-02-18T09:15:32;99331.91;;;12.21;100.00
21431;BME280;10876;49.038;10.608;2023-02-18T09:17:59;99326.31;;;12.26;100.00
21431;BME280;10876;49.038;10.608;2023-02-18T09:20:26;99334.13;;;12.46;100.00
21431;BME280;10876;49.038;10.608;2023-02-18T09:22:53;99335.72;;;12.61;100.00
21431;BME280;10876;49.038;10.608;2023-02-18T09:25:20;99350.13;;;12.80;100.00
21431;BME280;10876;49.038;10.608;2023-02-18T09:27:47;99364.19;;;12.79;100.00
21431;BME280;10876;49.038;10.608;2023-02-18T09:30:21;99368.59;;;13.02;100.00
21431;BME280;10876;49.038;10.608;2023-02-18T09:32:51;99362.28;;;13.02;100.00
21431;BME280;10876;49.038;10.608;2023-02-18T09:35:18;99372.56;;;12.74;100.00
21431;BME280;10876;49.038;10.608;2023-02-18T09:38:05;99364.94;;;12.93;100.00
21431;BME280;10876;49.038;10.608;2023-02-18T09:40:34;99363.03;;;12.57;100.00
21431;BME280;10876;49.038;10.608;2023-02-18T09:43:03;99355.16;;;12.65;100.00
21431;BME280;10876;49.038;10.608;2023-02-18T09:45:31;99353.16;;;12.56;100.00
21431;BME280;10876;49.038;10.608;2023-02-18T09:48:01;99361.25;;;12.61;100.00
21431;BME280;10876;49.038;10.608;2023-02-18T09:50:31;99359.72;;;12.69;100.00
21431;BME280;10876;49.038;10.608;2023-02-18T09:53:02;99348.56;;;12.66;100.00
21431;BME280;10876;49.038;10.608;2023-02-18T09:55:32;99355.19;;;12.51;100.00
21431;BME280;10876;49.038;10.608;2023-02-18T09:58:02;99348.13;;;12.58;100.00
21431;BME280;10876;49.038;10.608;2023-02-18T10:00:34;99364.88;;;12.48;100.00
21431;BME280;10876;49.038;10.608;2023-02-18T10:03:20;99362.94;;;12.49;100.00
21431;BME280;10876;49.038;10.608;2023-02-18T10:05:55;99366.91;;;12.43;100.00
21431;BME280;10876;49.038;10.608;2023-02-18T10:08:25;99391.94;;;12.41;100.00
21431;BME280;10876;49.038;10.608;2023-02-18T10:10:53;99400.28;;;12.36;100.00
21431;BME280;10876;49.038;10.608;2023-02-18T10:13:24;99408.50;;;12.36;100.00
21431;BME280;10876;49.038;10.608;2023-02-18T10:15:51;99430.63;;;12.31;100.00
21431;BME280;10876;49.038;10.608;2023-02-18T10:18:27;99427.53;;;12.32;100.00
21431;BME280;10876;49.038;10.608;2023-02-18T10:21:05;99424.28;;;12.30;100.00
21431;BME280;10876;49.038;10.608;2023-02-18T10:23:35;99443.75;;;12.34;100.00
21431;BME280;10876;49.038;10.608;2023-02-18T10:26:05;99454.00;;;12.28;100.00
21431;BME280;10876;49.038;10.608;2023-02-18T10:28:34;99443.81;;;12.29;100.00
21431;BME280;10876;49.038;10.608;2023-02-18T10:31:04;99452.06;;;12.29;100.00
21431;BME280;10876;49.038;10.608;2023-02-18T10:33:43;99440.28;;;12.28;100.00
21431;BME280;10876;49.038;10.608;2023-02-18T10:36:22;99441.59;;;12.31;100.00
21431;BME280;10876;49.038;10.608;2023-02-18T10:39:05;99434.28;;;12.40;100.00
21431;BME280;10876;49.038;10.608;2023-02-18T10:41:40;99436.50;;;12.38;100.00
21431;BME280;10876;49.038;10.608;2023-02-18T10:44:19;99415.94;;;12.49;100.00
21431;BME280;10876;49.038;10.608;2023-02-18T10:46:53;99421.03;;;12.56;100.00
21431;BME280;10876;49.038;10.608;2023-02-18T10:49:46;99431.00;;;12.66;100.00
21431;BME280;10876;49.038;10.608;2023-02-18T10:52:18;99420.53;;;12.68;100.00
21431;BME280;10876;49.038;10.608;2023-02-18T10:54:52;99426.50;;;12.70;100.00
21431;BME280;10876;49.038;10.608;2023-02-18T10:57:20;99420.19;;;12.69;100.00
21431;BME280;10876;49.038;10.608;2023-02-18T11:00:00;99422.34;;;12.58;100.00
21431;BME280;10876;49.038;10.608;2023-02-18T11:03:11;99420.00;;;12.66;100.00
21431;BME280;10876;49.038;10.608;2023-02-18T11:05:40;99404.03;;;12.68;100.00
21431;BME280;10876;49.038;10.608;2023-02-18T11:08:10;99400.44;;;12.67;100.00
21431;BME280;10876;49.038;10.608;2023-02-18T11:10:42;99399.03;;;12.56;100.00
21431;BME280;10876;49.038;10.608;2023-02-18T11:13:12;99390.28;;;12.68;100.00
21431;BME280;10876;49.038;10.608;2023-02-18T11:15:54;99397.00;;;12.61;100.00
21431;BME280;10876;49.038;10.608;2023-02-18T11:18:29;99375.63;;;12.58;100.00
21431;BME280;10876;49.038;10.608;2023-02-18T11:21:01;99361.59;;;12.46;100.00
21431;BME280;10876;49.038;10.608;2023-02-18T11:23:28;99379.50;;;12.44;100.00
21431;BME280;10876;49.038;10.608;2023-02-18T11:25:59;99381.75;;;12.42;100.00
21431;BME280;10876;49.038;10.608;2023-02-18T11:28:36;99392.63;;;12.47;100.00
21431;BME280;10876;49.038;10.608;2023-02-18T11:31:07;99387.16;;;12.47;100.00
21431;BME280;10876;49.038;10.608;2023-02-18T11:33:37;99366.28;;;12.59;100.00
21431;BME280;10876;49.038;10.608;2023-02-18T11:36:17;99371.97;;;12.63;100.00
21431;BME280;10876;49.038;10.608;2023-02-18T11:38:48;99368.50;;;12.71;100.00
21431;BME280;10876;49.038;10.608;2023-02-18T11:41:17;99365.81;;;12.80;100.00
21431;BME280;10876;49.038;10.608;2023-02-18T11:43:47;99368.47;;;12.85;100.00
21431;BME280;10876;49.038;10.608;2023-02-18T11:46:17;99371.06;;;12.90;100.00
21431;BME280;10876;49.038;10.608;2023-02-18T11:48:45;99376.19;;;12.83;100.00
21431;BME280;10876;49.038;10.608;2023-02-18T11:51:16;99374.59;;;12.82;100.00
21431;BME280;10876;49.038;10.608;2023-02-18T11:53:54;99367.63;;;12.84;100.00
21431;BME280;10876;49.038;10.608;2023-02-18T11:56:24;99368.31;;;12.90;100.00
21431;BME280;10876;49.038;10.608;2023-02-18T11:58:52;99348.25;;;12.90;100.00
21431;BME280;10876;49.038;10.608;2023-02-18T12:01:28;99344.59;;;12.94;100.00
21431;BME280;10876;49.038;10.608;2023-02-18T12:03:59;99344.97;;;13.01;100.00
21431;BME280;10876;49.038;10.608;2023-02-18T12:06:32;99346.41;;;12.99;100.00
21431;BME280;10876;49.038;10.608;2023-02-18T12:09:04;99331.50;;;13.14;100.00
21431;BME280;10876;49.038;10.608;2023-02-18T12:11:35;99332.03;;;13.02;100.00
21431;BME280;10876;49.038;10.608;2023-02-18T12:14:09;99327.41;;;13.11;100.00
21431;BME280;10876;49.038;10.608;2023-02-18T12:16:45;99316.72;;;13.10;100.00
21431;BME280;10876;49.038;10.608;2023-02-18T12:19:40;99318.84;;;13.13;100.00
21431;BME280;10876;49.038;10.608;2023-02-18T12:22:19;99317.41;;;13.15;100.00
21431;BME280;10876;49.038;10.608;2023-02-18T12:25:02;99305.34;;;13.25;100.00
21431;BME280;10876;49.038;10.608;2023-02-18T12:27:34;99312.03;;;13.33;100.00
21431;BME280;10876;49.038;10.608;2023-02-18T12:30:25;99309.63;;;13.31;100.00
21431;BME280;10876;49.038;10.608;2023-02-18T12:33:01;99328.19;;;13.48;100.00
21431;BME280;10876;49.038;10.608;2023-02-18T12:35:46;99298.34;;;13.41;100.00
21431;BME280;10876;49.038;10.608;2023-02-18T12:41:31;99284.72;;;13.36;100.00
21431;BME280;10876;49.038;10.608;2023-02-18T12:44:10;99283.34;;;13.25;100.00
21431;BME280;10876;49.038;10.608;2023-02-18T12:46:51;99278.22;;;13.32;100.00
21431;BME280;10876;49.038;10.608;2023-02-18T12:49:47;99294.09;;;13.35;100.00
21431;BME280;10876;49.038;10.608;2023-02-18T12:52:28;99280.50;;;13.39;100.00
21431;BME280;10876;49.038;10.608;2023-02-18T12:58:03;99271.44;;;13.38;100.00
21431;BME280;10876;49.038;10.608;2023-02-18T13:00:44;99267.84;;;13.29;100.00
21431;BME280;10876;49.038;10.608;2023-02-18T13:06:35;99278.22;;;13.10;100.00
21431;BME280;10876;49.038;10.608;2023-02-18T13:09:10;99277.41;;;13.09;100.00
21431;BME280;10876;49.038;10.608;2023-02-18T13:11:50;99278.22;;;13.10;100.00
21431;BME280;10876;49.038;10.608;2023-02-18T13:14:21;99279.34;;;13.08;100.00
21431;BME280;10876;49.038;10.608;2023-02-18T13:16:52;99271.09;;;13.08;100.00
21431;BME280;10876;49.038;10.608;2023-02-18T13:19:23;99274.72;;;12.95;100.00
21431;BME280;10876;49.038;10.608;2023-02-18T13:21:54;99265.38;;;12.96;100.00
21431;BME280;10876;49.038;10.608;2023-02-18T13:24:29;99272.59;;;12.92;100.00
21431;BME280;10876;49.038;10.608;2023-02-18T13:27:05;99269.03;;;12.92;100.00
21431;BME280;10876;49.038;10.608;2023-02-18T13:29:38;99264.97;;;12.89;100.00
21431;BME280;10876;49.038;10.608;2023-02-18T13:32:13;99264.72;;;12.99;100.00
21431;BME280;10876;49.038;10.608;2023-02-18T13:34:48;99263.16;;;13.07;100.00
21431;BME280;10876;49.038;10.608;2023-02-18T13:37:21;99261.59;;;13.15;100.00